Time;durP1;ratioP1;P1;durP2;ratioP2;P2;SDS_P1;SDS_P2;PMS_P1;PMS_P2;Temp;Humidity;BMP_temperature;BMP_pressure;BME280_temperature;BME280_humidity;BME280_pressure;Samples;Min_cycle;Max_cycle;Signal;HPM_P1;HPM_P2
2023/09/04 00:01:46;;;;;;;9.32;6.35;;;;;;;12.82;100.00;102636.72;5017716;28;20078;-96
2023/09/04 00:04:11;;;;;;;7.67;6.57;;;;;;;12.82;100.00;102630.53;5009772;28;20072;-96
2023/09/04 00:06:39;;;;;;;9.07;6.80;;;;;;;12.78;100.00;102632.84;4999853;28;20027;-96
2023/09/04 00:09:04;;;;;;;8.30;6.07;;;;;;;12.66;100.00;102621.22;5002022;28;20038;-96
2023/09/04 00:11:31;;;;;;;8.80;6.20;;;;;;;12.69;100.00;102631.53;5000438;28;20147;-96
2023/09/04 00:13:56;;;;;;;11.32;7.15;;;;;;;12.59;100.00;102617.81;4997464;28;20375;-96
2023/09/04 00:16:22;;;;;;;11.97;6.90;;;;;;;12.59;100.00;102620.50;4983258;28;20055;-96
2023/09/04 00:18:47;;;;;;;8.55;6.90;;;;;;;12.54;100.00;102627.38;4993443;28;20042;-96
2023/09/04 00:21:13;;;;;;;7.30;6.60;;;;;;;12.49;100.00;102613.78;4978393;28;20036;-96
2023/09/04 00:23:38;;;;;;;8.63;7.22;;;;;;;12.49;100.00;102615.66;4996377;28;20027;-96
2023/09/04 00:26:04;;;;;;;6.97;6.27;;;;;;;12.46;100.00;102608.88;5004280;28;20034;-95
2023/09/04 00:28:30;;;;;;;7.53;6.70;;;;;;;12.51;100.00;102622.44;5002559;28;20431;-95
2023/09/04 00:30:58;;;;;;;9.60;7.20;;;;;;;12.48;100.00;102616.72;4979411;28;20062;-96
2023/09/04 00:33:23;;;;;;;8.93;7.20;;;;;;;12.35;100.00;102601.56;5002886;28;20015;-96
2023/09/04 00:35:49;;;;;;;7.13;6.43;;;;;;;12.38;100.00;102614.56;5008191;28;20510;-96
2023/09/04 00:38:14;;;;;;;9.17;6.83;;;;;;;12.34;100.00;102616.06;4986067;28;20181;-96
2023/09/04 00:40:40;;;;;;;9.07;7.28;;;;;;;12.32;100.00;102620.84;4986159;28;20034;-95
2023/09/04 00:43:05;;;;;;;9.97;6.90;;;;;;;12.21;100.00;102614.34;5006045;28;20018;-96
2023/09/04 00:45:34;;;;;;;9.43;7.27;;;;;;;12.23;100.00;102618.44;5011664;28;20031;-96
2023/09/04 00:48:00;;;;;;;9.98;7.40;;;;;;;12.16;100.00;102620.41;5006330;28;20076;-96
2023/09/04 00:50:25;;;;;;;10.88;7.22;;;;;;;12.09;100.00;102606.22;4995745;28;20117;-96
2023/09/04 00:52:55;;;;;;;8.18;7.03;;;;;;;12.16;100.00;102620.41;4999244;28;20080;-96
2023/09/04 00:55:22;;;;;;;9.43;7.10;;;;;;;12.19;100.00;102630.72;5000681;28;20026;-96
2023/09/04 00:57:48;;;;;;;9.23;6.83;;;;;;;12.07;100.00;102611.81;4998710;28;20293;-96
2023/09/04 01:00:14;;;;;;;6.97;6.25;;;;;;;12.06;100.00;102617.41;4997289;28;20058;-96
2023/09/04 01:02:45;;;;;;;10.27;7.13;;;;;;;12.03;100.00;102613.31;4999784;28;20022;-95
2023/09/04 01:05:11;;;;;;;8.32;7.07;;;;;;;11.95;100.00;102608.22;5002085;28;20394;-96
2023/09/04 01:07:39;;;;;;;9.30;6.97;;;;;;;11.88;100.00;102613.63;5001665;28;20034;-96
2023/09/04 01:10:07;;;;;;;7.65;6.40;;;;;;;11.90;100.00;102622.28;4999694;28;20025;-96
2023/09/04 01:12:43;;;;;;;10.13;7.15;;;;;;;11.87;100.00;102616.56;5000716;28;20041;-96
2023/09/04 01:15:09;;;;;;;7.80;6.95;;;;;;;11.91;100.00;102617.75;4991173;28;20026;-96
2023/09/04 01:17:36;;;;;;;11.20;7.45;;;;;;;11.90;100.00;102622.28;4985994;28;20539;-95
2023/09/04 01:20:29;;;;;;;9.68;7.72;;;;;;;11.86;100.00;102614.91;4999790;28;20470;-96
2023/09/04 01:22:56;;;;;;;9.18;7.45;;;;;;;11.75;100.00;102597.66;4973554;28;20051;-96
2023/09/04 01:25:24;;;;;;;7.80;7.00;;;;;;;11.68;100.00;102599.59;4981942;28;20390;-96
2023/09/04 01:28:03;;;;;;;9.20;7.00;;;;;;;11.74;100.00;102612.97;4993294;28;20057;-96
2023/09/04 01:31:00;;;;;;;8.43;7.10;;;;;;;11.72;100.00;102611.53;5003097;28;20297;-96
2023/09/04 01:33:33;;;;;;;9.85;6.70;;;;;;;11.66;100.00;102606.03;4980782;28;20053;-96
2023/09/04 01:36:07;;;;;;;12.15;7.28;;;;;;;11.65;100.00;102614.28;4970667;28;20035;-96
2023/09/04 01:38:34;;;;;;;12.48;6.97;;;;;;;11.63;100.00;102611.00;4983907;28;20050;-96
2023/09/04 01:41:04;;;;;;;10.40;7.55;;;;;;;11.53;100.00;102598.06;4993470;28;20033;-95
2023/09/04 01:43:30;;;;;;;8.20;7.30;;;;;;;11.59;100.00;102605.25;4990438;28;20030;-95
2023/09/04 01:45:57;;;;;;;8.40;7.20;;;;;;;11.46;100.00;102589.28;4986906;28;20050;-96
2023/09/04 01:48:24;;;;;;;9.23;7.60;;;;;;;11.54;100.00;102594.34;4989037;28;20034;-94
2023/09/04 01:50:51;;;;;;;9.75;7.68;;;;;;;11.41;100.00;102581.84;4979778;28;20040;-94
2023/09/04 01:53:17;;;;;;;8.02;7.18;;;;;;;11.42;100.00;102582.69;4981414;28;20023;-94
2023/09/04 01:55:43;;;;;;;9.48;7.85;;;;;;;11.49;100.00;102597.69;4989942;28;20035;-95
2023/09/04 02:01:31;;;;;;;9.35;7.50;;;;;;;11.40;100.00;102600.88;4985474;28;20087;-95
2023/09/04 02:03:58;;;;;;;9.20;7.67;;;;;;;11.35;100.00;102601.53;5004948;28;20042;-96
2023/09/04 02:06:33;;;;;;;8.75;7.63;;;;;;;11.32;100.00;102597.41;5014322;28;20018;-96
2023/09/04 02:08:59;;;;;;;11.93;7.53;;;;;;;11.20;100.00;102585.75;5001316;28;20090;-95
2023/09/04 02:11:24;;;;;;;11.00;7.67;;;;;;;11.23;100.00;102589.88;4997608;28;20023;-96
2023/09/04 02:13:49;;;;;;;9.98;7.97;;;;;;;11.17;100.00;102581.66;4996218;28;20035;-96
2023/09/04 02:16:15;;;;;;;10.20;7.87;;;;;;;11.24;100.00;102591.50;4997551;28;20039;-96
2023/09/04 03:33:47;;;;;;;15.20;12.48;;;;;;;10.89;100.00;102536.47;5542133;22;20034;-96
2023/09/04 04:27:57;;;;;;;19.77;14.40;;;;;;;10.78;100.00;102524.59;5983834;22;20096;-96
2023/09/04 04:30:23;;;;;;;23.63;15.20;;;;;;;10.45;100.00;102472.84;5115111;22;20046;-96
2023/09/04 04:32:50;;;;;;;21.57;15.37;;;;;;;10.69;100.00;102504.44;5017161;28;20304;-96
2023/09/04 04:35:16;;;;;;;23.77;15.68;;;;;;;10.71;100.00;102505.03;5015196;28;20044;-96
2023/09/04 04:37:42;;;;;;;22.73;15.80;;;;;;;10.55;100.00;102477.72;5010612;28;20109;-96
2023/09/04 04:40:26;;;;;;;21.13;15.30;;;;;;;10.43;100.00;102482.97;5012269;28;20066;-96
2023/09/04 04:42:52;;;;;;;19.83;14.20;;;;;;;10.71;100.00;102530.00;5013827;28;20031;-96
2023/09/04 04:45:18;;;;;;;21.40;14.68;;;;;;;10.30;100.00;102461.59;5011096;28;20527;-96
2023/09/04 04:47:44;;;;;;;18.13;13.23;;;;;;;10.43;100.00;102496.34;5009862;28;20014;-96
2023/09/04 04:50:10;;;;;;;19.37;14.00;;;;;;;10.28;100.00;102477.06;5019013;28;20041;-96
2023/09/04 04:52:37;;;;;;;22.63;13.55;;;;;;;10.19;100.00;102464.97;5019808;28;20045;-96
2023/09/04 04:55:04;;;;;;;21.15;14.02;;;;;;;10.19;100.00;102465.78;5018065;28;20033;-96
2023/09/04 04:57:30;;;;;;;16.83;13.15;;;;;;;10.09;100.00;102455.53;5018535;28;20054;-96
2023/09/04 04:59:55;;;;;;;20.23;13.87;;;;;;;10.23;100.00;102484.91;5018584;28;20034;-96
2023/09/04 05:04:56;;;;;;;21.80;14.40;;;;;;;10.35;100.00;102488.56;5431724;22;20061;-96
2023/09/04 05:07:21;;;;;;;21.73;14.10;;;;;;;10.26;100.00;102484.47;5038007;28;20014;-96
2023/09/04 05:09:51;;;;;;;20.48;13.70;;;;;;;10.30;100.00;102486.53;5227058;22;20042;-90
2023/09/04 05:12:17;;;;;;;18.97;14.17;;;;;;;10.49;100.00;102515.31;4997847;28;20023;-89
2023/09/04 05:14:42;;;;;;;25.93;14.47;;;;;;;10.51;100.00;102513.22;5006734;28;20277;-89
2023/09/04 05:17:07;;;;;;;23.17;15.53;;;;;;;10.57;100.00;102518.56;5014962;28;20034;-92
2023/09/04 05:19:33;;;;;;;22.87;14.67;;;;;;;10.45;100.00;102499.66;4989585;28;20097;-91
2023/09/04 05:21:58;;;;;;;20.63;15.03;;;;;;;10.62;100.00;102523.25;4991504;28;20058;-90
2023/09/04 05:24:23;;;;;;;19.63;15.07;;;;;;;10.56;100.00;102510.75;4992984;28;20321;-94
2023/09/04 05:26:49;;;;;;;21.90;14.90;;;;;;;10.64;100.00;102512.34;4994390;28;20049;-93
2023/09/04 05:29:14;;;;;;;23.87;14.20;;;;;;;10.64;100.00;102517.69;4992092;28;20062;-93
2023/09/04 05:31:39;;;;;;;24.10;15.20;;;;;;;10.70;100.00;102506.91;4994677;28;20081;-94
2023/09/04 05:34:05;;;;;;;21.23;14.65;;;;;;;10.85;100.00;102522.69;4992055;28;20034;-93
2023/09/04 05:36:30;;;;;;;22.07;15.67;;;;;;;10.82;100.00;102507.03;4993083;28;20038;-90
2023/09/04 05:38:55;;;;;;;22.50;14.83;;;;;;;10.95;100.00;102524.91;4992745;28;20030;-91
2023/09/04 05:41:21;;;;;;;23.93;15.20;;;;;;;10.96;100.00;102510.41;4997426;28;20030;-90
2023/09/04 05:43:47;;;;;;;20.58;14.88;;;;;;;11.03;100.00;102510.38;5010464;28;20096;-91
2023/09/04 05:46:13;;;;;;;22.73;15.03;;;;;;;11.05;100.00;102511.81;5001499;28;20022;-91
2023/09/04 05:48:39;;;;;;;21.45;15.25;;;;;;;11.23;100.00;102526.28;5011368;28;20030;-92
2023/09/04 05:51:04;;;;;;;22.87;15.63;;;;;;;11.30;100.00;102536.97;4993292;28;20114;-92
2023/09/04 05:53:29;;;;;;;24.30;15.57;;;;;;;11.35;100.00;102535.25;4988950;28;20031;-88
2023/09/04 05:56:03;;;;;;;24.30;15.87;;;;;;;11.41;100.00;102533.53;4974336;28;20697;-86
2023/09/04 05:58:28;;;;;;;23.50;16.80;;;;;;;11.53;100.00;102528.28;4997884;28;20038;-89
2023/09/04 06:00:55;;;;;;;22.30;15.30;;;;;;;11.70;100.00;102538.41;5005804;28;20053;-91
2023/09/04 06:03:20;;;;;;;22.30;15.80;;;;;;;11.76;100.00;102533.00;5012291;28;20023;-90
2023/09/04 06:05:46;;;;;;;20.53;14.77;;;;;;;11.80;100.00;102541.44;5015912;28;20034;-88
2023/09/04 06:08:11;;;;;;;21.40;14.95;;;;;;;11.91;100.00;102531.78;5006701;28;20030;-87
2023/09/04 06:10:36;;;;;;;23.30;16.13;;;;;;;12.02;100.00;102538.31;5001637;28;20030;-88
2023/09/04 06:13:02;;;;;;;24.63;16.87;;;;;;;12.12;100.00;102533.22;5001822;28;20054;-87
2023/09/04 06:15:27;;;;;;;22.87;16.57;;;;;;;12.24;100.00;102525.22;4999874;28;20344;-87
2023/09/04 06:17:52;;;;;;;26.20;16.47;;;;;;;12.36;100.00;102531.44;4990394;28;20034;-88
2023/09/04 06:20:18;;;;;;;27.35;17.35;;;;;;;12.47;100.00;102529.84;4998156;28;20050;-87
2023/09/04 06:22:48;;;;;;;23.03;16.83;;;;;;;12.54;100.00;102530.59;4992274;28;20057;-86
2023/09/04 06:25:13;;;;;;;22.53;15.90;;;;;;;12.60;100.00;102523.47;4985608;28;20022;-86
2023/09/04 06:27:38;;;;;;;22.80;17.07;;;;;;;12.73;100.00;102536.69;4988817;28;20301;-85
2023/09/04 06:30:05;;;;;;;20.80;16.03;;;;;;;12.78;100.00;102530.63;4988581;28;20041;-86
2023/09/04 06:32:31;;;;;;;24.48;16.60;;;;;;;12.90;100.00;102524.47;4988780;28;20406;-86
2023/09/04 06:34:56;;;;;;;22.20;15.70;;;;;;;12.98;100.00;102532.16;4989583;28;20018;-85
2023/09/04 06:37:22;;;;;;;23.50;16.50;;;;;;;13.08;100.00;102526.22;4990229;28;20030;-86
2023/09/04 06:39:47;;;;;;;23.80;17.90;;;;;;;13.15;100.00;102535.81;4996324;28;20088;-85
2023/09/04 06:42:12;;;;;;;22.53;16.40;;;;;;;13.24;100.00;102540.88;4993371;28;20026;-85
2023/09/04 06:44:38;;;;;;;19.30;15.27;;;;;;;13.32;100.00;102533.25;4990213;28;20023;-86
2023/09/04 06:47:03;;;;;;;20.67;16.03;;;;;;;13.43;100.00;102531.66;4988023;28;20432;-85
2023/09/04 06:49:28;;;;;;;22.07;16.30;;;;;;;13.48;100.00;102534.47;4990487;28;20050;-86
2023/09/04 06:51:54;;;;;;;22.17;16.73;;;;;;;13.59;100.00;102537.34;4992399;28;20045;-86
2023/09/04 06:54:19;;;;;;;23.83;18.07;;;;;;;13.71;100.00;102538.16;4987308;28;20046;-85
2023/09/04 06:56:44;;;;;;;23.30;16.50;;;;;;;13.80;100.00;102532.41;4989824;28;20106;-85
2023/09/04 06:59:10;;;;;;;20.33;17.00;;;;;;;13.89;100.00;102528.28;4990612;28;20504;-88
2023/09/04 07:01:35;;;;;;;25.23;17.70;;;;;;;14.01;100.00;102522.84;5010195;28;20038;-88
2023/09/04 07:04:00;;;;;;;24.37;17.07;;;;;;;14.12;100.00;102521.19;5011366;28;20022;-87
2023/09/04 07:06:25;;;;;;;21.37;16.70;;;;;;;14.22;100.00;102516.81;4995387;28;20635;-88
2023/09/04 07:08:53;;;;;;;22.80;17.38;;;;;;;14.43;100.00;102524.44;4997918;28;20025;-94
2023/09/04 07:11:18;;;;;;;21.10;16.33;;;;;;;14.54;100.00;102529.78;4987917;28;20035;-86
2023/09/04 07:13:44;;;;;;;21.00;16.50;;;;;;;14.68;100.00;102529.50;4992600;28;20278;-88
2023/09/04 07:16:09;;;;;;;24.77;17.10;;;;;;;14.79;100.00;102517.81;4989720;28;20046;-87
2023/09/04 07:18:34;;;;;;;23.13;16.88;;;;;;;14.97;100.00;102527.53;4988517;28;20117;-87
2023/09/04 07:21:00;;;;;;;22.40;15.57;;;;;;;15.12;100.00;102524.25;4992878;28;20030;-87
2023/09/04 07:23:26;;;;;;;21.43;16.03;;;;;;;15.24;100.00;102515.25;4993172;28;20030;-87
2023/09/04 07:25:54;;;;;;;22.73;15.38;;;;;;;15.39;100.00;102523.56;4991401;28;20512;-87
2023/09/04 07:28:20;;;;;;;22.23;16.08;;;;;;;15.52;100.00;102521.56;4994132;28;20030;-87
2023/09/04 07:30:46;;;;;;;19.10;15.43;;;;;;;15.58;100.00;102518.69;4992626;28;20045;-87
2023/09/04 07:33:11;;;;;;;20.13;15.10;;;;;;;15.65;100.00;102514.97;4993059;28;20029;-87
2023/09/04 07:35:37;;;;;;;17.70;14.67;;;;;;;15.82;100.00;102523.00;4992884;28;20036;-87
2023/09/04 07:38:02;;;;;;;19.40;14.40;;;;;;;15.91;100.00;102521.53;4994076;28;20084;-87
2023/09/04 07:40:28;;;;;;;19.30;14.30;;;;;;;16.08;100.00;102526.84;4992182;28;20022;-87
2023/09/04 07:42:54;;;;;;;20.33;14.70;;;;;;;16.24;100.00;102535.16;4989382;28;20042;-84
2023/09/04 07:45:21;;;;;;;18.98;14.23;;;;;;;16.33;100.00;102525.50;4989456;28;20038;-84
2023/09/04 07:47:48;;;;;;;17.42;13.32;;;;;;;16.55;100.00;102540.84;4990779;28;20062;-85
2023/09/04 07:50:13;;;;;;;15.80;12.43;;;;;;;16.66;100.00;102539.88;4986032;28;20022;-85
2023/09/04 07:52:38;;;;;;;13.57;11.60;;;;;;;16.81;100.00;102531.06;4989528;28;20154;-85
2023/09/04 07:55:04;;;;;;;16.07;11.40;;;;;;;16.92;100.00;102526.56;4988749;28;20026;-84
2023/09/04 07:57:32;;;;;;;15.75;13.30;;;;;;;17.05;100.00;102519.91;4991495;28;20040;-84
2023/09/04 07:59:59;;;;;;;14.65;12.90;;;;;;;17.16;100.00;102521.59;4992144;28;20457;-84
2023/09/04 08:02:24;;;;;;;21.27;12.93;;;;;;;17.23;100.00;102521.38;4988044;28;20026;-83
2023/09/04 08:04:50;;;;;;;16.90;12.63;;;;;;;17.39;100.00;102517.66;4985021;28;20083;-85
2023/09/04 08:07:15;;;;;;;15.17;12.30;;;;;;;17.45;100.00;102521.22;4990732;28;20532;-84
2023/09/04 08:09:40;;;;;;;15.57;11.73;;;;;;;17.59;100.00;102524.25;4992065;28;20529;-84
2023/09/04 08:12:06;;;;;;;15.23;10.70;;;;;;;17.69;100.00;102524.31;4990694;28;20695;-83
2023/09/04 08:14:35;;;;;;;15.00;9.57;;;;;;;17.85;100.00;102521.66;4990870;28;20328;-84
2023/09/04 08:17:02;;;;;;;11.15;9.63;;;;;;;17.91;100.00;102523.28;4988629;28;20026;-83
2023/09/04 08:19:27;;;;;;;12.65;9.07;;;;;;;18.00;100.00;102523.63;4991209;28;20053;-83
2023/09/04 08:21:53;;;;;;;9.80;8.80;;;;;;;18.06;100.00;102517.13;4991153;28;20030;-84
2023/09/04 08:24:18;;;;;;;12.73;8.73;;;;;;;18.14;100.00;102524.75;4987778;28;20031;-84
2023/09/04 08:26:44;;;;;;;14.67;9.03;;;;;;;18.21;100.00;102518.25;4989951;28;20149;-85
2023/09/04 08:29:09;;;;;;;10.57;7.68;;;;;;;18.27;100.00;102522.59;4990886;28;20030;-84
2023/09/04 08:31:34;;;;;;;11.30;7.00;;;;;;;18.33;100.00;102515.28;4989029;28;20038;-84
2023/09/04 08:34:01;;;;;;;10.83;7.70;;;;;;;18.50;100.00;102512.31;4992107;28;20023;-83
2023/09/04 08:36:27;;;;;;;8.30;6.95;;;;;;;18.66;100.00;102518.56;4987659;28;20022;-83
2023/09/04 08:38:52;;;;;;;9.00;6.77;;;;;;;18.75;100.00;102514.22;4991966;28;20062;-83
2023/09/04 08:41:21;;;;;;;9.87;6.27;;;;;;;18.82;100.00;102517.47;4987151;28;20030;-83
2023/09/04 08:43:49;;;;;;;9.75;6.75;;;;;;;18.92;100.00;102520.19;4989643;28;20262;-83
2023/09/04 08:46:15;;;;;;;7.22;5.90;;;;;;;19.06;100.00;102522.34;4991646;28;20145;-83
2023/09/04 08:48:44;;;;;;;9.85;6.72;;;;;;;19.22;100.00;102515.81;4990300;28;20038;-83
2023/09/04 08:51:09;;;;;;;7.55;5.80;;;;;;;19.33;100.00;102511.16;4991340;28;20105;-83
2023/09/04 08:53:37;;;;;;;9.10;5.90;;;;;;;19.38;100.00;102513.03;4990227;28;20184;-83
2023/09/04 08:56:05;;;;;;;6.53;5.60;;;;;;;19.51;100.00;102528.78;4991358;28;20028;-83
2023/09/04 08:58:32;;;;;;;9.10;5.68;;;;;;;19.66;100.00;102524.38;4987408;28;20034;-83
2023/09/04 09:00:58;;;;;;;9.88;5.43;;;;;;;19.74;100.00;102521.03;4989141;28;20115;-84
2023/09/04 09:03:23;;;;;;;8.40;5.40;;;;;;;19.85;100.00;102519.09;4987823;28;20019;-84
2023/09/04 09:05:49;;;;;;;6.43;4.75;;;;;;;20.02;100.00;102521.50;4992223;28;20077;-84
2023/09/04 09:08:18;;;;;;;6.80;4.10;;;;;;;20.15;100.00;102525.50;4991830;28;20073;-83
2023/09/04 09:10:46;;;;;;;4.20;3.70;;;;;;;20.23;100.00;102508.56;4990348;28;20029;-83
2023/09/04 09:13:14;;;;;;;4.05;3.67;;;;;;;20.35;100.00;102510.13;4989341;28;20034;-85
2023/09/04 09:15:41;;;;;;;5.28;3.80;;;;;;;20.47;100.00;102509.75;4990990;28;20033;-83
2023/09/04 09:18:06;;;;;;;4.63;4.13;;;;;;;20.64;100.00;102518.31;4988856;28;20435;-85
2023/09/04 09:20:42;;;;;;;5.10;4.47;;;;;;;20.77;100.00;102514.16;4990183;28;20304;-85
2023/09/04 09:23:07;;;;;;;7.20;4.47;;;;;;;20.88;100.00;102515.69;4984966;28;20038;-83
2023/09/04 09:25:34;;;;;;;5.23;4.20;;;;;;;20.95;99.44;102507.19;4986418;28;20026;-83
2023/09/04 09:28:01;;;;;;;7.70;3.85;;;;;;;20.99;95.90;102499.22;4985695;28;20129;-85
2023/09/04 09:30:33;;;;;;;4.63;3.90;;;;;;;21.02;98.55;102504.91;4986288;28;20031;-85
2023/09/04 09:32:59;;;;;;;7.57;4.22;;;;;;;21.06;97.54;102507.88;4989648;28;20026;-86
2023/09/04 09:35:24;;;;;;;6.70;3.88;;;;;;;21.13;94.60;102516.50;4990801;28;20036;-85
2023/09/04 09:37:53;;;;;;;6.47;4.37;;;;;;;21.21;98.15;102517.78;4989340;28;20031;-85
2023/09/04 09:40:20;;;;;;;4.55;3.50;;;;;;;21.39;95.61;102510.78;4990217;28;20030;-83
2023/09/04 09:42:45;;;;;;;5.53;3.80;;;;;;;21.50;95.92;102503.31;4990225;28;20097;-83
2023/09/04 09:45:12;;;;;;;4.27;3.93;;;;;;;21.70;95.85;102512.34;4990138;28;20065;-83
2023/09/04 09:47:37;;;;;;;3.75;3.45;;;;;;;21.74;90.10;102506.00;4992213;28;20055;-83
2023/09/04 09:50:04;;;;;;;5.10;3.90;;;;;;;21.84;90.80;102507.78;4984449;28;20034;-83
2023/09/04 09:52:29;;;;;;;6.30;4.10;;;;;;;21.98;93.03;102515.22;4989029;28;20065;-83
2023/09/04 09:54:54;;;;;;;11.10;4.30;;;;;;;21.98;87.08;102504.31;4989706;28;20062;-82
2023/09/04 09:57:20;;;;;;;6.00;4.07;;;;;;;22.02;87.52;102503.44;4987011;28;20074;-83
2023/09/04 09:59:50;;;;;;;7.87;4.27;;;;;;;22.06;89.21;102509.91;4989375;28;20297;-83
2023/09/04 10:02:22;;;;;;;5.18;3.60;;;;;;;22.20;88.91;102501.81;4988228;28;20022;-86
2023/09/04 10:04:48;;;;;;;6.18;4.03;;;;;;;22.30;84.18;102500.84;4991212;28;20026;-86
2023/09/04 10:07:17;;;;;;;5.57;4.00;;;;;;;22.39;85.88;102500.97;4989762;28;20057;-86
2023/09/04 10:09:45;;;;;;;5.30;3.63;;;;;;;22.45;87.35;102497.09;4990927;28;20023;-86
2023/09/04 10:12:30;;;;;;;9.60;3.65;;;;;;;22.56;87.38;102488.69;4989768;28;20054;-86
2023/09/04 10:14:58;;;;;;;4.23;3.83;;;;;;;22.63;79.88;102489.94;4981320;28;20326;-82
2023/09/04 10:17:32;;;;;;;5.85;3.38;;;;;;;22.74;82.29;102487.00;4985926;28;20054;-81
2023/09/04 10:20:03;;;;;;;5.57;3.75;;;;;;;22.74;84.53;102481.53;4984183;28;20048;-82
2023/09/04 10:22:38;;;;;;;4.28;3.80;;;;;;;22.82;83.20;102489.84;4988781;28;20510;-82
2023/09/04 10:25:12;;;;;;;5.85;3.65;;;;;;;22.89;80.77;102489.47;4988138;28;20390;-81
2023/09/04 10:27:56;;;;;;;3.47;3.17;;;;;;;23.04;84.40;102488.34;4977896;28;20428;-82
2023/09/04 10:30:25;;;;;;;4.50;3.10;;;;;;;23.17;82.63;102488.69;4989705;28;20770;-81
2023/09/04 10:32:54;;;;;;;7.15;3.65;;;;;;;23.27;79.32;102491.22;4983528;28;20031;-80
2023/09/04 10:35:20;;;;;;;4.68;3.88;;;;;;;23.36;76.27;102473.00;4989402;28;20030;-81
2023/09/04 10:37:47;;;;;;;4.60;3.50;;;;;;;23.36;76.90;102473.00;4988660;28;20097;-82
2023/09/04 10:40:14;;;;;;;4.35;3.10;;;;;;;23.41;79.46;102470.16;4982788;28;20389;-82
2023/09/04 10:42:41;;;;;;;3.53;3.22;;;;;;;23.41;76.57;102459.19;4984990;28;20038;-82
2023/09/04 10:45:14;;;;;;;3.28;3.03;;;;;;;23.61;76.53;102467.28;4988921;28;20030;-82
2023/09/04 10:47:50;;;;;;;3.47;3.10;;;;;;;23.65;69.91;102465.53;4989654;28;20050;-82
2023/09/04 10:50:27;;;;;;;4.20;3.07;;;;;;;23.70;73.71;102463.50;4990027;28;20681;-82
2023/09/04 10:52:54;;;;;;;4.28;3.00;;;;;;;23.83;72.65;102461.84;4985067;28;20038;-82
2023/09/04 10:55:19;;;;;;;3.28;2.97;;;;;;;23.96;70.26;102448.44;4990531;28;20113;-82
2023/09/04 10:58:05;;;;;;;4.00;2.90;;;;;;;24.11;71.19;102456.28;4992580;28;20121;-84
2023/09/04 11:00:36;;;;;;;2.92;2.63;;;;;;;24.20;71.29;102451.66;4986443;28;20494;-83
2023/09/04 11:03:24;;;;;;;4.68;3.03;;;;;;;24.23;71.33;102443.97;4985324;28;20498;-83
2023/09/04 11:06:01;;;;;;;3.10;2.80;;;;;;;24.25;69.38;102448.03;4992823;28;20037;-82
2023/09/04 11:08:30;;;;;;;3.25;2.85;;;;;;;24.19;66.35;102443.78;4991436;28;20038;-83
2023/09/04 11:11:03;;;;;;;2.87;2.60;;;;;;;24.20;67.04;102437.19;4988140;28;20113;-82
2023/09/04 11:13:30;;;;;;;3.90;3.10;;;;;;;24.24;68.26;102434.63;4990050;28;20778;-82
2023/09/04 11:15:56;;;;;;;3.65;2.65;;;;;;;24.45;68.55;102429.44;4992524;28;20066;-82
2023/09/04 11:18:22;;;;;;;4.70;3.03;;;;;;;24.65;67.23;102420.66;4992329;28;20033;-82
2023/09/04 11:20:54;;;;;;;3.67;2.83;;;;;;;24.67;65.40;102427.75;4992423;28;20034;-82
2023/09/04 11:23:19;;;;;;;4.05;3.10;;;;;;;24.67;61.39;102428.56;4990298;28;20027;-83
2023/09/04 11:25:46;;;;;;;3.87;3.27;;;;;;;24.75;66.13;102411.38;4991146;28;20045;-83
2023/09/04 11:28:12;;;;;;;5.75;3.65;;;;;;;24.90;62.16;102432.06;4991409;28;20533;-84
2023/09/04 11:30:38;;;;;;;4.07;3.33;;;;;;;24.92;65.03;102426.28;4993034;28;20019;-84
2023/09/04 11:33:04;;;;;;;3.60;3.30;;;;;;;24.98;62.80;102418.72;4990637;28;20026;-86
2023/09/04 11:35:29;;;;;;;4.10;3.70;;;;;;;25.00;62.65;102421.94;4992947;28;20076;-86
2023/09/04 11:37:56;;;;;;;4.47;3.13;;;;;;;25.08;62.32;102410.19;4992007;28;20568;-86
2023/09/04 11:40:30;;;;;;;5.15;3.35;;;;;;;25.06;63.29;102406.94;4992156;28;20038;-86
2023/09/04 11:42:55;;;;;;;3.63;3.33;;;;;;;25.28;61.69;102411.53;4988798;28;20034;-86
2023/09/04 11:45:24;;;;;;;4.90;3.30;;;;;;;25.28;61.14;102410.69;4993944;28;20026;-86
2023/09/04 11:47:50;;;;;;;3.30;3.00;;;;;;;25.25;62.23;102407.47;4992473;28;20034;-86
2023/09/04 11:50:16;;;;;;;4.87;3.40;;;;;;;25.30;61.36;102402.97;4993495;28;20023;-86
2023/09/04 11:52:41;;;;;;;3.78;3.10;;;;;;;25.37;61.37;102400.56;4992246;28;20036;-86
2023/09/04 11:55:07;;;;;;;3.60;3.30;;;;;;;25.34;59.20;102403.94;4991945;28;20023;-86
2023/09/04 11:57:32;;;;;;;3.33;2.90;;;;;;;25.38;59.45;102396.69;4991383;28;20026;-86
2023/09/04 11:59:58;;;;;;;3.97;3.57;;;;;;;25.33;56.05;102397.63;4993010;28;20040;-86
2023/09/04 12:02:23;;;;;;;3.93;3.10;;;;;;;25.35;59.13;102397.31;4992100;28;20030;-86
2023/09/04 12:04:49;;;;;;;3.90;2.87;;;;;;;25.40;56.54;102397.16;4992481;28;20034;-85
2023/09/04 12:07:18;;;;;;;3.05;2.75;;;;;;;25.44;56.91;102398.16;4992444;28;20105;-86
2023/09/04 12:09:43;;;;;;;3.35;3.00;;;;;;;25.55;57.38;102404.94;4992319;28;20053;-86
2023/09/04 12:12:09;;;;;;;4.87;3.10;;;;;;;25.61;59.49;102391.88;4991363;28;20398;-86
2023/09/04 12:14:35;;;;;;;3.70;3.40;;;;;;;25.66;57.88;102391.69;4993106;28;20033;-86
2023/09/04 12:17:00;;;;;;;3.63;3.00;;;;;;;25.82;52.71;102392.00;4989060;28;20362;-86
2023/09/04 12:19:27;;;;;;;3.23;2.60;;;;;;;25.86;53.08;102400.38;4992007;28;20042;-86
2023/09/04 12:21:52;;;;;;;3.85;2.70;;;;;;;25.92;56.04;102403.78;4991393;28;20018;-86
2023/09/04 12:24:19;;;;;;;3.00;2.70;;;;;;;26.13;55.11;102385.50;4993016;28;20034;-86
2023/09/04 12:26:47;;;;;;;7.18;3.00;;;;;;;26.24;51.69;102385.97;4993367;28;20448;-86
2023/09/04 12:29:12;;;;;;;4.80;2.87;;;;;;;26.42;53.58;102377.66;4993092;28;20061;-86
2023/09/04 12:31:38;;;;;;;5.27;3.07;;;;;;;26.39;52.50;102387.38;4992856;28;20324;-86
2023/09/04 12:34:04;;;;;;;5.37;2.87;;;;;;;26.57;49.64;102370.81;4993177;28;20034;-86
2023/09/04 12:36:32;;;;;;;3.38;2.90;;;;;;;26.81;52.65;102383.16;4991775;28;20018;-86
2023/09/04 12:38:57;;;;;;;3.33;2.80;;;;;;;26.90;51.78;102372.91;4991703;28;20354;-86
2023/09/04 12:41:22;;;;;;;3.83;2.80;;;;;;;26.89;50.54;102372.13;4989411;28;20022;-87
2023/09/04 12:43:48;;;;;;;6.50;3.17;;;;;;;26.90;52.06;102361.91;4985590;28;20014;-89
2023/09/04 12:46:13;;;;;;;3.40;3.10;;;;;;;26.99;53.00;102362.69;4991012;28;20030;-88
2023/09/04 12:48:41;;;;;;;6.00;3.63;;;;;;;26.87;51.27;102357.06;4992854;28;20441;-89
2023/09/04 12:51:07;;;;;;;5.30;3.40;;;;;;;26.78;53.45;102342.56;4988385;28;20480;-86
2023/09/04 12:53:32;;;;;;;5.05;3.60;;;;;;;27.01;54.36;102356.81;4989616;28;20098;-86
2023/09/04 12:55:58;;;;;;;5.60;2.80;;;;;;;27.16;53.95;102341.69;4990019;28;20022;-86
2023/09/04 12:58:23;;;;;;;2.97;2.63;;;;;;;27.17;50.64;102343.28;4988685;28;20033;-87
2023/09/04 13:00:48;;;;;;;3.97;2.83;;;;;;;27.12;48.29;102332.47;4989189;28;20109;-87
2023/09/04 13:03:14;;;;;;;2.80;2.57;;;;;;;27.01;44.66;102319.16;4986541;28;20022;-87
2023/09/04 13:05:41;;;;;;;2.73;2.47;;;;;;;27.06;47.59;102326.38;4988766;28;20035;-87
2023/09/04 13:08:06;;;;;;;6.80;2.90;;;;;;;26.97;46.18;102318.19;4988954;28;20174;-85
2023/09/04 13:10:31;;;;;;;4.43;3.00;;;;;;;26.91;47.23;102319.53;4991600;28;20096;-85
2023/09/04 13:12:57;;;;;;;6.10;2.73;;;;;;;27.11;47.12;102325.38;4979003;28;20364;-84
2023/09/04 13:15:22;;;;;;;3.00;2.70;;;;;;;27.14;46.30;102322.75;4991764;28;20277;-84
2023/09/04 13:17:48;;;;;;;3.53;2.33;;;;;;;27.13;42.21;102317.59;4986563;28;20026;-84
2023/09/04 13:20:14;;;;;;;4.33;2.70;;;;;;;27.10;44.96;102315.50;4991434;28;20068;-85
2023/09/04 13:22:40;;;;;;;2.90;2.50;;;;;;;27.26;44.82;102313.75;4991038;28;20478;-84
2023/09/04 13:25:07;;;;;;;3.45;2.40;;;;;;;27.34;44.07;102309.31;4991114;28;20030;-85
2023/09/04 13:27:36;;;;;;;9.70;2.50;;;;;;;27.56;47.56;102315.63;4988848;28;20026;-84